createdAt,value
2023-05-17T00:00:52.346Z,10.47
2023-05-17T00:03:19.162Z,10.48
2023-05-17T00:05:46.052Z,10.33
2023-05-17T00:08:12.683Z,10.34
2023-05-17T00:10:40.998Z,10.36
2023-05-17T00:13:07.694Z,10.36
2023-05-17T00:15:34.556Z,10.32
2023-05-17T00:18:01.466Z,10.33
2023-05-17T00:20:28.109Z,10.23
2023-05-17T00:22:54.708Z,10.29
2023-05-17T00:25:21.356Z,10.26
2023-05-17T00:27:49.447Z,10.30
2023-05-17T00:30:16.169Z,10.25
2023-05-17T00:32:42.992Z,10.13
2023-05-17T00:35:09.715Z,10.17
2023-05-17T00:37:36.463Z,10.17
2023-05-17T00:40:03.876Z,10.08
2023-05-17T00:42:30.843Z,10.02
2023-05-17T00:44:58.897Z,10.02
2023-05-17T00:47:25.748Z,9.88
2023-05-17T00:49:52.632Z,9.94
2023-05-17T00:52:19.421Z,9.85
2023-05-17T00:54:46.652Z,9.91
2023-05-17T00:57:13.442Z,9.96
2023-05-17T00:59:40.626Z,9.95
2023-05-17T01:02:09.147Z,9.86
2023-05-17T01:04:36.508Z,9.81
2023-05-17T01:07:03.540Z,9.71
2023-05-17T01:09:30.834Z,9.73
2023-05-17T01:12:07.933Z,9.79
2023-05-17T01:14:43.344Z,9.70
2023-05-17T01:17:16.918Z,9.76
2023-05-17T01:19:56.985Z,9.90
2023-05-17T01:22:32.642Z,9.87
2023-05-17T01:25:15.847Z,9.84
2023-05-17T01:27:46.696Z,9.82
2023-05-17T01:30:15.229Z,9.83
2023-05-17T01:32:43.543Z,9.82
2023-05-17T01:35:11.796Z,9.84
2023-05-17T01:37:38.602Z,9.75
2023-05-17T01:40:08.056Z,9.70
2023-05-17T01:42:38.853Z,9.68
2023-05-17T01:45:16.113Z,9.53
2023-05-17T01:47:50.448Z,9.50
2023-05-17T01:50:29.111Z,9.50
2023-05-17T01:53:02.180Z,9.65
2023-05-17T01:55:41.173Z,9.62
2023-05-17T01:58:10.643Z,9.65
2023-05-17T02:00:39.862Z,9.58
2023-05-17T02:03:06.580Z,9.56
2023-05-17T02:05:33.275Z,9.48
2023-05-17T02:07:59.895Z,9.35
2023-05-17T02:10:26.579Z,9.45
2023-05-17T02:12:53.864Z,9.41
2023-05-17T02:15:20.485Z,9.23
2023-05-17T02:17:48.828Z,9.26
2023-05-17T02:20:15.798Z,9.34
2023-05-17T02:22:42.455Z,9.34
2023-05-17T02:25:09.755Z,9.31
2023-05-17T02:27:36.561Z,9.28
2023-05-17T02:30:04.016Z,9.19
2023-05-17T02:32:30.831Z,9.09
2023-05-17T02:34:59.150Z,9.13
2023-05-17T02:37:25.861Z,9.05
2023-05-17T02:39:52.482Z,9.17
2023-05-17T02:42:19.480Z,9.00
2023-05-17T02:44:46.140Z,8.94
2023-05-17T02:47:13.013Z,8.98
2023-05-17T02:49:39.657Z,9.13
2023-05-17T02:52:07.750Z,8.96
2023-05-17T02:54:34.534Z,8.92
2023-05-17T02:57:01.140Z,8.95
2023-05-17T02:59:27.919Z,8.93
2023-05-17T03:01:54.531Z,8.89
2023-05-17T03:04:21.202Z,8.83
2023-05-17T03:06:47.895Z,8.86
2023-05-17T03:09:15.874Z,8.80
2023-05-17T03:11:42.666Z,8.95
2023-05-17T03:14:09.546Z,8.91
2023-05-17T03:16:36.136Z,8.93
2023-05-17T03:19:03.364Z,8.98
2023-05-17T03:21:30.229Z,9.12
2023-05-17T03:23:57.028Z,9.17
2023-05-17T03:26:25.055Z,9.35
2023-05-17T03:28:52.208Z,9.42
2023-05-17T03:31:18.915Z,9.33
2023-05-17T03:33:45.660Z,9.48
2023-05-17T03:36:12.389Z,9.61
2023-05-17T03:38:38.962Z,9.75
2023-05-17T03:41:05.913Z,9.85
2023-05-17T03:43:34.201Z,9.94
2023-05-17T03:46:01.003Z,9.99
2023-05-17T03:48:28.059Z,10.14
2023-05-17T03:50:54.907Z,10.14
2023-05-17T03:53:22.051Z,10.36
2023-05-17T03:55:48.671Z,10.51
2023-05-17T03:58:15.455Z,10.58
2023-05-17T04:00:43.499Z,10.61
2023-05-17T04:03:10.166Z,10.73
2023-05-17T04:05:36.847Z,10.71
2023-05-17T04:08:03.619Z,10.70
2023-05-17T04:10:30.881Z,10.75
2023-05-17T04:12:57.623Z,10.92
2023-05-17T04:15:24.273Z,10.88
2023-05-17T04:17:52.462Z,10.92
2023-05-17T04:20:19.447Z,10.97
2023-05-17T04:22:46.409Z,11.00
2023-05-17T04:25:15.339Z,11.02
2023-05-17T04:27:42.237Z,11.19
2023-05-17T04:30:09.833Z,11.21
2023-05-17T04:32:37.112Z,11.33
2023-05-17T04:35:06.335Z,11.39
2023-05-17T04:37:32.999Z,11.50
2023-05-17T04:39:59.616Z,11.45
2023-05-17T04:42:26.428Z,11.44
2023-05-17T04:44:53.408Z,11.51
2023-05-17T04:47:20.120Z,11.50
2023-05-17T04:49:46.723Z,11.52
2023-05-17T04:52:14.704Z,11.65
2023-05-17T04:54:41.380Z,11.83
2023-05-17T04:57:07.999Z,12.02
2023-05-17T04:59:34.606Z,12.02
2023-05-17T05:02:01.339Z,12.19
2023-05-17T05:04:29.984Z,12.30
2023-05-17T05:06:56.606Z,12.36
2023-05-17T05:09:24.800Z,12.44
2023-05-17T05:11:51.432Z,12.54
2023-05-17T05:14:18.245Z,12.31
2023-05-17T05:16:44.866Z,12.25
2023-05-17T05:19:11.764Z,11.88
2023-05-17T05:21:38.885Z,12.06
2023-05-17T05:24:05.998Z,12.14
2023-05-17T05:26:33.992Z,12.72
2023-05-17T05:29:00.607Z,13.05
2023-05-17T05:31:27.626Z,13.15
2023-05-17T05:33:54.410Z,13.34
2023-05-17T05:36:21.417Z,13.54
2023-05-17T05:38:48.241Z,14.10
2023-05-17T05:41:14.826Z,13.70
2023-05-17T05:43:42.768Z,13.30
2023-05-17T05:46:09.369Z,13.87
2023-05-17T05:48:36.212Z,14.90
2023-05-17T05:51:03.027Z,15.83
2023-05-17T05:53:29.768Z,16.69
2023-05-17T05:55:56.490Z,17.19
2023-05-17T05:58:23.086Z,17.26
2023-05-17T06:00:51.352Z,17.59
2023-05-17T06:03:18.300Z,18.09
2023-05-17T06:05:45.042Z,18.05
2023-05-17T06:08:11.933Z,17.79
2023-05-17T06:10:38.782Z,17.80
2023-05-17T06:13:05.500Z,17.05
2023-05-17T06:15:32.422Z,16.15
2023-05-17T06:18:00.734Z,16.87
2023-05-17T06:20:27.682Z,16.66
2023-05-17T06:22:54.504Z,16.00
2023-05-17T06:25:21.196Z,16.53
2023-05-17T06:27:47.784Z,16.49
2023-05-17T06:30:14.552Z,17.39
2023-05-17T06:32:41.281Z,16.83
2023-05-17T06:35:10.727Z,16.72
2023-05-17T06:37:37.515Z,16.81
2023-05-17T06:40:15.088Z,16.67
2023-05-17T06:42:43.085Z,15.09
2023-05-17T06:45:10.943Z,15.03
2023-05-17T06:47:37.777Z,15.33
2023-05-17T06:50:04.818Z,14.89
2023-05-17T06:52:32.978Z,14.58
2023-05-17T06:54:59.716Z,14.27
2023-05-17T06:57:26.411Z,15.56
2023-05-17T06:59:53.080Z,15.82
2023-05-17T07:02:19.891Z,16.49
2023-05-17T07:04:46.747Z,16.40
2023-05-17T07:07:13.349Z,17.23
2023-05-17T07:09:41.540Z,16.37
2023-05-17T07:12:08.512Z,15.47
2023-05-17T07:14:37.755Z,14.79
2023-05-17T07:17:04.862Z,14.07
2023-05-17T07:19:31.657Z,14.25
2023-05-17T07:21:58.358Z,14.92
2023-05-17T07:24:25.069Z,15.17
2023-05-17T07:26:53.053Z,15.30
2023-05-17T07:29:19.598Z,14.83
2023-05-17T07:31:46.423Z,14.31
2023-05-17T07:34:13.464Z,14.55
2023-05-17T07:36:40.199Z,14.54
2023-05-17T07:39:06.904Z,14.18
2023-05-17T07:41:33.629Z,14.04
2023-05-17T07:44:01.601Z,14.64
2023-05-17T07:46:28.203Z,14.61
2023-05-17T07:48:58.145Z,14.86
2023-05-17T07:51:25.715Z,14.27
2023-05-17T07:53:52.346Z,14.38
2023-05-17T07:56:18.991Z,14.67
2023-05-17T07:58:45.608Z,15.00
2023-05-17T08:01:13.620Z,15.27
2023-05-17T08:03:40.321Z,14.38
2023-05-17T08:06:07.269Z,14.53
2023-05-17T08:08:33.895Z,14.96
2023-05-17T08:11:00.551Z,15.45
2023-05-17T08:13:27.246Z,16.26
2023-05-17T08:16:01.440Z,16.83
2023-05-17T08:18:37.855Z,17.10
2023-05-17T08:21:06.268Z,17.46
2023-05-17T08:23:33.018Z,17.38
2023-05-17T08:25:59.758Z,16.47
2023-05-17T08:28:26.357Z,16.73
2023-05-17T08:30:53.248Z,16.90
2023-05-17T08:33:19.980Z,18.33
2023-05-17T08:35:48.151Z,19.15
2023-05-17T08:38:14.848Z,18.20
2023-05-17T08:40:41.646Z,17.32
2023-05-17T08:43:11.793Z,17.17
2023-05-17T08:45:39.191Z,16.89
2023-05-17T08:48:06.925Z,17.60
2023-05-17T08:50:34.306Z,17.40
2023-05-17T08:53:02.981Z,17.55
2023-05-17T08:55:31.539Z,17.59
2023-05-17T08:57:59.424Z,17.31
2023-05-17T09:00:27.965Z,17.33
2023-05-17T09:02:55.005Z,16.98
2023-05-17T09:05:21.827Z,16.88
2023-05-17T09:07:49.363Z,18.05
2023-05-17T09:10:17.473Z,18.44
2023-05-17T09:12:44.591Z,18.72
2023-05-17T09:15:15.890Z,18.22
2023-05-17T09:17:43.372Z,17.75
2023-05-17T09:20:11.016Z,17.79
2023-05-17T09:22:37.690Z,17.99
2023-05-17T09:25:05.029Z,17.41
2023-05-17T09:27:33.064Z,17.58
2023-05-17T09:30:01.247Z,17.48
2023-05-17T09:32:27.986Z,16.48
2023-05-17T09:34:54.951Z,16.64
2023-05-17T09:37:21.726Z,16.04
2023-05-17T09:39:48.610Z,15.85
2023-05-17T09:42:16.281Z,16.09
2023-05-17T09:44:51.237Z,16.50
2023-05-17T09:47:25.835Z,17.98
2023-05-17T09:49:52.826Z,17.45
2023-05-17T09:52:20.278Z,17.13
2023-05-17T09:54:53.627Z,16.37
2023-05-17T09:57:20.348Z,16.72
2023-05-17T09:59:48.750Z,16.67
2023-05-17T10:02:21.063Z,16.73
2023-05-17T10:04:48.958Z,16.88
2023-05-17T10:07:17.749Z,17.19
2023-05-17T10:09:44.551Z,17.73
2023-05-17T10:12:14.339Z,18.19
2023-05-17T10:14:43.489Z,18.49
2023-05-17T10:17:12.659Z,18.98
2023-05-17T10:19:40.157Z,19.68
2023-05-17T10:22:21.747Z,19.22
2023-05-17T10:24:50.416Z,17.38
2023-05-17T10:27:17.703Z,18.07
2023-05-17T10:29:47.045Z,18.32
2023-05-17T10:32:19.019Z,18.98
2023-05-17T10:34:49.595Z,19.72
2023-05-17T10:37:25.198Z,20.37
2023-05-17T10:39:52.088Z,20.09
2023-05-17T10:42:19.303Z,18.66
2023-05-17T10:44:47.920Z,18.69
2023-05-17T10:47:15.980Z,17.63
2023-05-17T10:49:44.732Z,17.18
2023-05-17T10:52:13.509Z,16.92
2023-05-17T10:54:42.252Z,17.45
2023-05-17T10:57:09.219Z,17.78
2023-05-17T10:59:35.956Z,18.55
2023-05-17T11:02:04.972Z,18.00
2023-05-17T11:04:38.180Z,17.23
2023-05-17T11:07:28.011Z,16.72
2023-05-17T11:10:03.457Z,16.94
2023-05-17T11:12:33.637Z,17.99
2023-05-17T11:15:00.763Z,18.59
2023-05-17T11:17:34.169Z,20.22
2023-05-17T11:20:11.677Z,20.52
2023-05-17T11:22:41.628Z,19.71
2023-05-17T11:25:10.783Z,18.13
2023-05-17T11:27:39.888Z,18.22
2023-05-17T11:30:16.448Z,17.56
2023-05-17T11:32:47.456Z,17.49
2023-05-17T11:35:16.705Z,17.86
2023-05-17T11:37:44.773Z,18.53
2023-05-17T11:40:12.280Z,18.33
2023-05-17T11:42:39.861Z,17.87
2023-05-17T11:45:07.435Z,17.80
2023-05-17T11:47:38.728Z,18.39
2023-05-17T11:50:07.840Z,18.58
2023-05-17T11:52:36.389Z,18.64
2023-05-17T11:55:04.466Z,18.06
2023-05-17T11:57:32.005Z,17.95
2023-05-17T11:59:59.502Z,17.26
2023-05-17T12:02:26.889Z,18.41
2023-05-17T12:04:56.617Z,18.56
2023-05-17T12:07:24.498Z,18.50
2023-05-17T12:09:52.886Z,18.15
2023-05-17T12:12:20.166Z,18.29
2023-05-17T12:14:46.807Z,17.95
2023-05-17T12:17:21.239Z,17.57
2023-05-17T12:19:48.205Z,17.58
2023-05-17T12:22:15.022Z,17.73
2023-05-17T12:24:42.888Z,18.07
2023-05-17T12:27:11.341Z,18.22
2023-05-17T12:29:38.956Z,17.73
2023-05-17T12:32:07.924Z,18.09
2023-05-17T12:34:35.167Z,18.30
2023-05-17T12:37:01.965Z,16.92
2023-05-17T12:39:31.372Z,16.66
2023-05-17T12:41:58.894Z,17.26
2023-05-17T12:44:26.974Z,16.86
2023-05-17T12:46:54.508Z,17.20
2023-05-17T12:49:21.298Z,16.74
2023-05-17T12:51:48.630Z,16.03
2023-05-17T12:54:27.691Z,16.00
2023-05-17T12:56:54.687Z,16.28
2023-05-17T12:59:21.691Z,17.39
2023-05-17T13:01:50.991Z,17.78
2023-05-17T13:04:19.203Z,17.80
2023-05-17T13:06:47.734Z,18.06
2023-05-17T13:09:14.783Z,17.32
2023-05-17T13:11:41.937Z,16.89
2023-05-17T13:14:08.688Z,16.88
2023-05-17T13:16:38.077Z,17.19
2023-05-17T13:19:13.935Z,17.07
2023-05-17T13:21:40.837Z,17.27
2023-05-17T13:24:09.408Z,16.96
2023-05-17T13:26:36.064Z,16.97
2023-05-17T13:29:02.736Z,17.09
2023-05-17T13:31:29.392Z,16.54
2023-05-17T13:33:56.129Z,16.94
2023-05-17T13:36:26.980Z,16.81
2023-05-17T13:38:54.203Z,16.97
2023-05-17T13:41:21.162Z,17.38
2023-05-17T13:43:47.948Z,17.05
2023-05-17T13:46:14.777Z,16.97
2023-05-17T13:48:42.759Z,17.29
2023-05-17T13:51:09.773Z,16.88
2023-05-17T13:53:37.795Z,16.81
2023-05-17T13:56:04.805Z,16.76
2023-05-17T13:58:31.451Z,16.81
2023-05-17T14:00:58.126Z,17.12
2023-05-17T14:03:24.961Z,17.53
2023-05-17T14:05:52.872Z,17.36
2023-05-17T14:08:19.964Z,17.08
2023-05-17T14:10:48.604Z,17.39
2023-05-17T14:13:15.257Z,17.80
2023-05-17T14:15:43.260Z,17.88
2023-05-17T14:18:11.999Z,17.68
2023-05-17T14:20:38.804Z,17.79
2023-05-17T14:23:06.048Z,17.13
2023-05-17T14:25:33.046Z,17.12
2023-05-17T14:28:01.018Z,16.89
2023-05-17T14:30:27.661Z,17.24
2023-05-17T14:32:54.398Z,16.87
2023-05-17T14:35:24.126Z,16.58
2023-05-17T14:37:50.697Z,16.82
2023-05-17T14:40:17.388Z,16.83
2023-05-17T14:42:43.962Z,17.02
2023-05-17T14:45:12.510Z,17.31
2023-05-17T14:47:39.185Z,17.22
2023-05-17T14:50:07.121Z,17.83
2023-05-17T14:52:33.835Z,18.03
2023-05-17T14:55:00.546Z,18.01
2023-05-17T14:57:27.315Z,17.32
2023-05-17T14:59:54.062Z,17.83
2023-05-17T15:02:22.182Z,17.61
2023-05-17T15:04:49.099Z,17.68
2023-05-17T15:07:15.899Z,17.96
2023-05-17T15:09:43.201Z,17.36
2023-05-17T15:12:13.111Z,17.54
2023-05-17T15:14:40.649Z,17.26
2023-05-17T15:17:07.712Z,17.11
2023-05-17T15:19:35.829Z,16.99
2023-05-17T15:22:02.483Z,16.70
2023-05-17T15:24:29.284Z,16.68
2023-05-17T15:26:55.881Z,16.53
2023-05-17T15:29:22.488Z,16.70
2023-05-17T15:31:49.157Z,17.02
2023-05-17T15:34:15.991Z,17.63
2023-05-17T15:36:44.050Z,17.85
2023-05-17T15:39:10.628Z,17.20
2023-05-17T15:41:38.816Z,17.07
2023-05-17T15:44:05.885Z,17.31
2023-05-17T15:46:32.581Z,17.33
2023-05-17T15:48:59.280Z,17.11
2023-05-17T15:51:26.019Z,16.66
2023-05-17T15:53:53.981Z,16.90
2023-05-17T15:56:27.171Z,17.08
2023-05-17T15:58:53.829Z,17.20
2023-05-17T16:01:20.468Z,16.67
2023-05-17T16:03:47.244Z,17.10
2023-05-17T16:06:15.818Z,17.14
2023-05-17T16:08:42.461Z,17.15
2023-05-17T16:11:10.430Z,17.18
2023-05-17T16:13:37.033Z,16.68
2023-05-17T16:16:03.812Z,16.68
2023-05-17T16:18:30.785Z,16.64
2023-05-17T16:20:58.778Z,16.92
2023-05-17T16:23:27.601Z,17.41
2023-05-17T16:25:54.331Z,17.20
2023-05-17T16:28:22.702Z,17.02
2023-05-17T16:30:49.660Z,16.92
2023-05-17T16:33:16.585Z,17.00
2023-05-17T16:35:43.678Z,17.21
2023-05-17T16:38:10.398Z,16.90
2023-05-17T16:40:38.361Z,17.05
2023-05-17T16:43:05.331Z,17.12
2023-05-17T16:45:41.684Z,16.63
2023-05-17T16:48:08.365Z,17.06
2023-05-17T16:50:35.216Z,16.95
2023-05-17T16:53:01.804Z,16.61
2023-05-17T16:55:28.416Z,16.62
2023-05-17T16:57:55.146Z,16.80
2023-05-17T17:00:24.774Z,16.84
2023-05-17T17:02:52.955Z,16.41
2023-05-17T17:05:19.973Z,16.67
2023-05-17T17:07:46.549Z,16.77
2023-05-17T17:10:13.466Z,16.43
2023-05-17T17:12:40.153Z,16.25
2023-05-17T17:15:08.250Z,15.64
2023-05-17T17:17:35.131Z,16.27
2023-05-17T17:20:03.499Z,16.39
2023-05-17T17:22:30.120Z,16.18
2023-05-17T17:24:56.767Z,16.01
2023-05-17T17:27:23.405Z,16.16
2023-05-17T17:29:50.212Z,15.96
2023-05-17T17:32:16.996Z,15.92
2023-05-17T17:34:43.735Z,16.04
2023-05-17T17:37:11.739Z,16.17
2023-05-17T17:39:38.390Z,16.05
2023-05-17T17:42:06.302Z,15.80
2023-05-17T17:44:32.998Z,15.84
2023-05-17T17:46:59.800Z,15.69
2023-05-17T17:49:26.737Z,15.62
2023-05-17T17:51:53.407Z,15.69
2023-05-17T17:54:21.357Z,15.70
2023-05-17T17:56:48.362Z,15.23
2023-05-17T17:59:15.065Z,15.13
2023-05-17T18:01:45.374Z,15.09
2023-05-17T18:04:12.222Z,15.21
2023-05-17T18:06:40.799Z,15.25
2023-05-17T18:09:07.475Z,15.17
2023-05-17T18:11:35.613Z,15.10
2023-05-17T18:14:02.132Z,14.82
2023-05-17T18:16:29.049Z,14.90
2023-05-17T18:18:55.769Z,15.04
2023-05-17T18:21:22.437Z,15.14
2023-05-17T18:23:49.432Z,15.01
2023-05-17T18:26:16.652Z,14.85
2023-05-17T18:28:44.678Z,14.40
2023-05-17T18:31:11.353Z,14.57
2023-05-17T18:33:38.013Z,14.67
2023-05-17T18:36:05.392Z,14.55
2023-05-17T18:38:34.282Z,14.51
2023-05-17T18:41:01.192Z,14.53
2023-05-17T18:43:29.149Z,14.41
2023-05-17T18:45:59.544Z,14.42
2023-05-17T18:48:26.328Z,14.42
2023-05-17T18:50:52.985Z,14.18
2023-05-17T18:53:21.318Z,14.00
2023-05-17T18:55:47.928Z,14.02
2023-05-17T18:58:14.562Z,13.55
2023-05-17T19:00:41.259Z,13.66
2023-05-17T19:03:09.326Z,13.80
2023-05-17T19:05:35.968Z,13.63
2023-05-17T19:08:02.619Z,13.54
2023-05-17T19:10:29.429Z,13.56
2023-05-17T19:12:56.188Z,13.38
2023-05-17T19:15:22.859Z,13.42
2023-05-17T19:17:49.512Z,13.28
2023-05-17T19:20:17.784Z,13.33
2023-05-17T19:22:44.442Z,13.20
2023-05-17T19:25:11.096Z,13.14
2023-05-17T19:27:40.128Z,13.11
2023-05-17T19:30:08.318Z,13.12
2023-05-17T19:32:36.305Z,13.01
2023-05-17T19:35:03.162Z,13.04
2023-05-17T19:37:31.132Z,12.90
2023-05-17T19:39:59.040Z,12.87
2023-05-17T19:42:25.695Z,12.80
2023-05-17T19:44:52.286Z,12.63
2023-05-17T19:47:18.991Z,12.50
2023-05-17T19:49:45.589Z,12.50
2023-05-17T19:52:12.194Z,12.39
2023-05-17T19:54:40.311Z,12.30
2023-05-17T19:57:06.919Z,12.16
2023-05-17T19:59:33.702Z,12.02
2023-05-17T20:02:00.436Z,12.23
2023-05-17T20:04:27.576Z,12.20
2023-05-17T20:06:54.244Z,12.00
2023-05-17T20:09:21.034Z,12.14
2023-05-17T20:11:49.064Z,12.03
2023-05-17T20:14:15.878Z,12.11
2023-05-17T20:16:42.703Z,11.93
2023-05-17T20:19:09.673Z,11.91
2023-05-17T20:21:36.629Z,11.86
2023-05-17T20:24:04.419Z,11.76
2023-05-17T20:26:31.128Z,11.75
2023-05-17T20:28:59.249Z,11.72
2023-05-17T20:31:26.308Z,11.79
2023-05-17T20:33:53.176Z,11.60
2023-05-17T20:38:46.664Z,11.60
2023-05-17T20:41:13.487Z,11.43
2023-05-17T20:43:40.244Z,11.33
2023-05-17T20:46:08.462Z,11.25
2023-05-17T20:48:35.231Z,11.24
2023-05-17T20:51:02.617Z,11.29
2023-05-17T20:53:29.832Z,11.13
2023-05-17T20:55:57.118Z,11.06
2023-05-17T20:58:24.063Z,11.03
2023-05-17T21:00:50.717Z,11.01
2023-05-17T21:03:18.975Z,11.06
2023-05-17T21:05:45.951Z,10.88
2023-05-17T21:08:13.164Z,10.68
2023-05-17T21:10:40.107Z,10.63
2023-05-17T21:13:07.010Z,10.90
2023-05-17T21:15:34.127Z,10.76
2023-05-17T21:18:01.155Z,10.72
2023-05-17T21:20:29.455Z,10.67
2023-05-17T21:22:56.080Z,10.61
2023-05-17T21:25:22.844Z,10.58
2023-05-17T21:27:50.016Z,10.78
2023-05-17T21:30:16.832Z,10.41
2023-05-17T21:32:43.499Z,10.40
2023-05-17T21:35:10.246Z,10.47
2023-05-17T21:37:38.195Z,10.37
2023-05-17T21:40:06.291Z,10.54
2023-05-17T21:42:33.327Z,10.40
2023-05-17T21:44:59.971Z,10.44
2023-05-17T21:47:26.708Z,10.59
2023-05-17T21:49:53.414Z,10.40
2023-05-17T21:52:20.386Z,10.38
2023-05-17T21:54:48.606Z,10.12
2023-05-17T21:57:15.290Z,10.04
2023-05-17T21:59:41.868Z,10.23
2023-05-17T22:02:08.777Z,10.11
2023-05-17T22:04:35.489Z,10.18
2023-05-17T22:07:02.150Z,10.16
2023-05-17T22:09:29.039Z,10.24
2023-05-17T22:11:56.975Z,10.12
2023-05-17T22:14:26.285Z,10.03
2023-05-17T22:16:53.099Z,10.08
2023-05-17T22:19:21.298Z,9.94
2023-05-17T22:21:48.963Z,9.94
2023-05-17T22:24:15.631Z,9.88
2023-05-17T22:26:42.230Z,9.85
2023-05-17T22:29:10.465Z,9.73
2023-05-17T22:31:37.149Z,9.82
2023-05-17T22:34:03.962Z,9.90
2023-05-17T22:36:30.835Z,9.78
2023-05-17T22:38:57.667Z,9.81
2023-05-17T22:41:24.462Z,9.87
2023-05-17T22:43:51.265Z,9.80
2023-05-17T22:46:19.320Z,9.70
2023-05-17T22:48:45.996Z,9.85
2023-05-17T22:51:15.426Z,9.76
2023-05-17T22:53:42.173Z,9.61
2023-05-17T22:56:09.005Z,9.76
2023-05-17T22:58:35.615Z,9.66
2023-05-17T23:01:02.278Z,9.66
2023-05-17T23:03:30.447Z,9.69
2023-05-17T23:05:57.544Z,9.63
2023-05-17T23:08:24.188Z,9.65
2023-05-17T23:10:50.868Z,9.63
2023-05-17T23:13:17.566Z,9.61
2023-05-17T23:15:44.204Z,9.73
2023-05-17T23:18:10.943Z,9.63
2023-05-17T23:20:39.085Z,9.58
2023-05-17T23:23:07.856Z,9.58
2023-05-17T23:25:34.622Z,9.37
2023-05-17T23:28:01.237Z,9.37
2023-05-17T23:30:28.065Z,9.35
2023-05-17T23:32:54.738Z,9.44
2023-05-17T23:35:22.805Z,9.43
2023-05-17T23:37:50.891Z,9.13
2023-05-17T23:40:17.827Z,9.26
2023-05-17T23:42:44.549Z,9.33
2023-05-17T23:45:11.266Z,9.39
2023-05-17T23:47:37.903Z,9.38
2023-05-17T23:50:05.176Z,9.18
2023-05-17T23:52:31.816Z,9.23
2023-05-17T23:54:59.872Z,9.12
2023-05-17T23:57:26.563Z,9.12
2023-05-17T23:59:53.166Z,9.03
